Time;durP1;ratioP1;P1;durP2;ratioP2;P2;SDS_P1;SDS_P2;PMS_P1;PMS_P2;Temp;Humidity;BMP_temperature;BMP_pressure;BME280_temperature;BME280_humidity;BME280_pressure;Samples;Min_cycle;Max_cycle;Signal;HPM_P1;HPM_P2
2022/06/23 00:02:02;;;;;;;4.82;4.22;;;23.10;49.80;;;;;;5045417;28;20112;-77
2022/06/23 00:04:32;;;;;;;6.95;4.63;;;23.00;49.60;;;;;;5043661;28;20041;-78
2022/06/23 00:07:15;;;;;;;5.65;4.82;;;23.00;49.80;;;;;;5036257;28;20033;-76
2022/06/23 00:09:49;;;;;;;6.05;4.45;;;22.90;49.80;;;;;;5044441;28;20037;-76
2022/06/23 00:12:18;;;;;;;5.20;3.95;;;22.90;49.80;;;;;;5018481;28;20108;-77
2022/06/23 00:14:54;;;;;;;6.20;4.88;;;22.80;49.80;;;;;;5026801;28;20048;-77
2022/06/23 00:17:30;;;;;;;5.53;4.40;;;22.80;50.00;;;;;;5039454;28;20102;-76
2022/06/23 00:19:59;;;;;;;5.38;4.72;;;22.70;49.90;;;;;;5026099;28;20034;-76
2022/06/23 00:22:28;;;;;;;5.70;4.22;;;22.70;50.00;;;;;;5028838;28;20107;-78
2022/06/23 00:24:57;;;;;;;4.90;4.18;;;22.60;50.00;;;;;;5034281;28;20576;-77
2022/06/23 00:27:32;;;;;;;4.53;4.10;;;22.50;49.90;;;;;;5030900;28;20029;-76
2022/06/23 00:30:17;;;;;;;4.68;4.10;;;22.50;50.10;;;;;;5025213;28;20124;-78
2022/06/23 00:32:43;;;;;;;4.93;4.40;;;22.40;50.10;;;;;;5043743;28;20205;-78
2022/06/23 00:35:16;;;;;;;4.78;4.22;;;22.40;50.10;;;;;;5032484;28;20104;-79
2022/06/23 00:37:49;;;;;;;4.82;4.32;;;22.30;50.10;;;;;;5034534;28;20112;-77
2022/06/23 00:40:22;;;;;;;5.15;4.43;;;22.30;50.20;;;;;;5022050;28;20049;-76
2022/06/23 00:42:55;;;;;;;5.38;4.88;;;22.30;50.30;;;;;;5044480;28;20043;-77
2022/06/23 00:45:40;;;;;;;5.53;4.63;;;22.20;50.20;;;;;;5042389;28;20029;-77
2022/06/23 00:48:08;;;;;;;4.75;4.32;;;22.20;50.40;;;;;;5033702;28;20137;-77
2022/06/23 00:50:37;;;;;;;4.68;4.13;;;22.20;50.40;;;;;;5007600;28;20516;-77
2022/06/23 00:53:18;;;;;;;5.15;4.03;;;22.10;51.00;;;;;;5029867;28;20034;-77
2022/06/23 00:55:52;;;;;;;6.18;4.90;;;22.00;50.40;;;;;;5014312;28;20025;-77
2022/06/23 00:58:29;;;;;;;5.85;4.65;;;22.00;50.40;;;;;;5026033;28;20028;-78
2022/06/23 01:01:03;;;;;;;5.20;4.50;;;22.00;50.60;;;;;;5031433;28;20040;-78
2022/06/23 01:03:46;;;;;;;4.22;3.83;;;21.90;50.60;;;;;;5044539;28;20044;-77
2022/06/23 01:06:19;;;;;;;;;;;21.90;50.70;;;;;;5044203;28;20095;-79
2022/06/23 01:09:31;;;;;;;5.00;4.50;;;21.90;50.40;;;;;;5026306;28;19912;-79
2022/06/23 01:12:03;;;;;;;5.57;4.50;;;21.80;50.30;;;;;;5023801;28;20017;-77
2022/06/23 01:14:34;;;;;;;4.72;4.32;;;21.80;50.40;;;;;;5030680;28;20032;-78
2022/06/23 01:17:36;;;;;;;5.72;4.22;;;21.70;50.30;;;;;;5039899;28;20024;-78
2022/06/23 01:20:22;;;;;;;5.28;4.18;;;21.70;50.70;;;;;;5028613;28;20040;-77
2022/06/23 01:23:18;;;;;;;5.30;4.80;;;21.60;50.50;;;;;;5031457;28;20124;-79
2022/06/23 01:26:07;;;;;;;4.43;4.03;;;21.60;50.70;;;;;;5000075;28;20116;-77
2022/06/23 01:28:41;;;;;;;4.28;3.88;;;21.60;50.80;;;;;;5016488;28;20028;-77
2022/06/23 01:31:23;;;;;;;5.72;4.45;;;21.50;50.70;;;;;;5034441;28;20453;-77
2022/06/23 01:33:54;;;;;;;6.03;4.07;;;21.40;50.70;;;;;;5021921;28;20167;-76
2022/06/23 01:36:32;;;;;;;4.82;4.32;;;21.40;50.70;;;;;;5037201;28;20540;-77
2022/06/23 01:39:18;;;;;;;4.47;4.07;;;21.40;50.90;;;;;;5020913;28;20044;-77
2022/06/23 01:42:01;;;;;;;5.50;4.90;;;21.30;50.80;;;;;;5013836;28;20056;-77
2022/06/23 01:44:45;;;;;;;4.28;3.88;;;21.30;50.90;;;;;;5045039;28;20366;-78
2022/06/23 01:47:37;;;;;;;6.00;4.82;;;21.30;51.10;;;;;;5026205;28;20230;-76
2022/06/23 01:50:12;;;;;;;5.57;4.20;;;21.20;51.00;;;;;;5021235;28;20056;-78
2022/06/23 01:52:38;;;;;;;5.15;4.07;;;21.20;51.10;;;;;;5031338;28;20111;-78
2022/06/23 01:55:18;;;;;;;4.72;4.28;;;21.10;50.90;;;;;;5039786;28;20083;-78
2022/06/23 01:57:49;;;;;;;4.57;4.05;;;21.10;51.20;;;;;;5005391;28;20643;-77
2022/06/23 02:00:20;;;;;;;5.20;4.07;;;21.00;51.10;;;;;;5039974;28;20029;-76
2022/06/23 02:03:20;;;;;;;4.60;3.90;;;21.00;51.10;;;;;;5048584;28;20060;-79
2022/06/23 02:05:55;;;;;;;5.50;4.20;;;20.90;51.20;;;;;;5049553;28;20039;-77
2022/06/23 02:08:42;;;;;;;5.03;4.30;;;20.90;51.20;;;;;;5048237;28;20055;-76
2022/06/23 02:11:13;;;;;;;4.82;3.88;;;20.90;51.30;;;;;;5033282;28;20507;-77
2022/06/23 02:13:42;;;;;;;5.25;4.72;;;20.80;51.20;;;;;;5048459;28;20032;-78
2022/06/23 02:16:31;;;;;;;5.22;4.18;;;20.80;51.30;;;;;;5033490;28;20060;-78
2022/06/23 02:19:21;;;;;;;5.32;4.38;;;20.80;51.40;;;;;;5045829;28;20030;-77
2022/06/23 02:22:09;;;;;;;7.03;4.32;;;20.70;51.30;;;;;;5030506;28;20487;-77
2022/06/23 02:24:56;;;;;;;4.57;4.18;;;20.70;51.30;;;;;;5032357;28;20061;-76
2022/06/23 02:27:38;;;;;;;5.63;4.22;;;20.60;51.30;;;;;;5023406;28;20463;-76
2022/06/23 02:30:37;;;;;;;4.82;4.32;;;20.60;51.40;;;;;;5030437;28;20143;-76
2022/06/23 02:33:28;;;;;;;5.82;4.30;;;20.50;51.40;;;;;;5027471;28;20033;-77
2022/06/23 02:35:59;;;;;;;3.85;3.42;;;20.50;51.40;;;;;;5033214;28;20029;-76
2022/06/23 02:38:33;;;;;;;6.78;4.60;;;20.50;51.50;;;;;;5038049;28;20044;-76
2022/06/23 02:41:02;;;;;;;7.63;4.57;;;20.40;51.40;;;;;;5034066;28;20071;-76
2022/06/23 02:43:38;;;;;;;5.00;3.83;;;20.40;51.50;;;;;;5044914;28;20451;-77
2022/06/23 02:46:33;;;;;;;4.78;3.90;;;20.30;51.40;;;;;;5027044;28;20037;-76
2022/06/23 02:49:04;;;;;;;4.28;3.50;;;20.30;51.60;;;;;;5045927;28;20083;-76
2022/06/23 02:51:58;;;;;;;4.70;3.65;;;20.30;51.60;;;;;;5043903;28;20080;-77
2022/06/23 02:54:42;;;;;;;5.10;3.78;;;20.30;51.80;;;;;;5016116;28;20025;-76
2022/06/23 02:57:26;;;;;;;4.45;3.85;;;20.20;51.60;;;;;;5043978;28;20025;-76
2022/06/23 03:00:14;;;;;;;4.07;3.70;;;20.20;51.80;;;;;;5031817;28;20254;-76
2022/06/23 03:03:02;;;;;;;5.35;4.07;;;20.10;51.60;;;;;;5040054;28;20055;-77
2022/06/23 03:05:52;;;;;;;4.30;3.83;;;20.10;51.80;;;;;;5018963;28;20804;-76
2022/06/23 03:08:25;;;;;;;5.93;3.67;;;20.10;51.70;;;;;;5038877;28;20153;-77
2022/06/23 03:11:08;;;;;;;4.03;3.67;;;20.00;51.70;;;;;;5035654;28;20245;-77
2022/06/23 03:13:41;;;;;;;4.20;3.80;;;20.00;51.80;;;;;;5005111;28;20515;-76
2022/06/23 03:16:26;;;;;;;3.70;3.40;;;20.00;51.80;;;;;;5011500;28;20032;-75
2022/06/23 03:18:59;;;;;;;6.57;4.22;;;19.90;51.80;;;;;;5048646;28;20104;-76
2022/06/23 03:21:40;;;;;;;9.68;4.00;;;19.90;51.80;;;;;;5020538;28;20083;-76
2022/06/23 03:24:11;;;;;;;4.22;3.83;;;19.80;51.70;;;;;;5034511;28;20754;-77
2022/06/23 03:26:41;;;;;;;3.92;3.50;;;19.80;51.80;;;;;;5045075;28;20234;-79
2022/06/23 03:29:07;;;;;;;5.90;4.05;;;19.80;51.90;;;;;;5043997;28;20600;-77
2022/06/23 03:31:43;;;;;;;6.93;3.53;;;19.70;51.80;;;;;;5037728;28;20087;-77
2022/06/23 03:34:33;;;;;;;3.72;3.42;;;19.70;52.00;;;;;;5046145;28;20496;-77
2022/06/23 03:37:04;;;;;;;3.72;3.38;;;19.70;52.20;;;;;;5041261;28;20047;-75
2022/06/23 03:42:45;;;;;;;5.07;3.40;;;19.60;52.10;;;;;;5042674;28;20036;-76
2022/06/23 03:45:26;;;;;;;3.90;3.53;;;19.50;52.00;;;;;;5037482;28;20342;-78
2022/06/23 03:48:04;;;;;;;6.18;3.67;;;19.50;51.90;;;;;;5025731;28;20029;-79
2022/06/23 03:50:52;;;;;;;5.18;3.28;;;19.50;52.20;;;;;;5037698;28;20032;-78
2022/06/23 03:53:31;;;;;;;3.92;3.47;;;19.50;52.30;;;;;;5035014;28;20033;-77
2022/06/23 03:56:35;;;;;;;4.53;4.13;;;19.40;52.20;;;;;;5039659;28;20120;-77
2022/06/23 03:59:12;;;;;;;3.70;3.40;;;19.40;52.30;;;;;;4997518;28;20041;-77
2022/06/23 04:01:54;;;;;;;3.92;3.60;;;19.40;52.30;;;;;;5031170;28;20061;-78
2022/06/23 04:04:43;;;;;;;4.85;3.83;;;19.30;52.30;;;;;;5036793;28;20076;-80
2022/06/23 04:07:27;;;;;;;4.22;3.75;;;19.30;52.30;;;;;;5039705;28;20025;-77
2022/06/23 04:10:05;;;;;;;4.57;3.63;;;19.30;52.50;;;;;;5003709;28;20508;-77
2022/06/23 04:12:33;;;;;;;6.03;4.25;;;19.30;52.50;;;;;;5036160;28;20095;-76
2022/06/23 04:15:09;;;;;;;5.40;4.18;;;19.30;52.50;;;;;;5036116;28;20033;-77
2022/06/23 04:17:41;;;;;;;5.35;3.90;;;19.20;52.40;;;;;;5038899;28;20080;-77
2022/06/23 04:20:32;;;;;;;4.80;4.40;;;19.20;52.50;;;;;;5042336;28;20042;-76
2022/06/23 04:25:59;;;;;;;6.13;3.75;;;19.20;52.60;;;;;;4953932;28;20067;-76
2022/06/23 04:28:36;;;;;;;4.78;4.05;;;19.20;52.60;;;;;;4971926;28;20133;-76
2022/06/23 04:31:06;;;;;;;4.07;3.67;;;19.20;52.70;;;;;;4959680;28;20031;-76
2022/06/23 04:33:40;;;;;;;6.28;4.22;;;19.20;52.80;;;;;;4950254;28;20153;-75
2022/06/23 04:36:20;;;;;;;4.18;3.33;;;19.20;52.80;;;;;;4969470;28;20096;-76
2022/06/23 04:39:07;;;;;;;4.47;3.42;;;19.20;53.00;;;;;;4961927;28;20038;-77
2022/06/23 04:41:44;;;;;;;4.60;4.13;;;19.10;52.80;;;;;;4962702;28;20585;-76
2022/06/23 04:44:18;;;;;;;4.38;4.03;;;19.20;53.00;;;;;;4967063;28;20042;-76
2022/06/23 04:46:50;;;;;;;5.07;3.85;;;19.20;53.10;;;;;;4963513;28;20031;-76
2022/06/23 04:49:40;;;;;;;5.20;4.00;;;19.20;53.00;;;;;;4958838;28;20536;-76
2022/06/23 04:52:19;;;;;;;4.78;4.18;;;19.20;53.20;;;;;;4963465;28;20528;-76
2022/06/23 04:55:02;;;;;;;3.90;3.50;;;19.20;53.30;;;;;;4959196;28;20031;-75
2022/06/23 04:57:50;;;;;;;5.32;3.80;;;19.10;53.00;;;;;;4961676;28;20039;-76
2022/06/23 05:00:42;;;;;;;6.80;4.22;;;19.10;53.70;;;;;;4964467;28;20061;-77
2022/06/23 05:03:20;;;;;;;9.23;5.22;;;19.10;53.20;;;;;;4934329;28;20046;-77
2022/06/23 05:05:56;;;;;;;5.20;3.95;;;19.10;53.10;;;;;;4964251;28;20061;-76
2022/06/23 05:08:27;;;;;;;4.10;3.80;;;19.20;53.40;;;;;;4979073;28;20034;-76
2022/06/23 05:11:02;;;;;;;5.53;4.50;;;19.20;53.40;;;;;;4961221;28;20111;-79
2022/06/23 05:13:40;;;;;;;4.47;4.07;;;19.20;53.40;;;;;;4942024;28;20031;-76
2022/06/23 05:16:20;;;;;;;4.50;4.10;;;19.20;53.50;;;;;;4956383;28;20026;-76
2022/06/23 05:18:54;;;;;;;4.43;3.90;;;19.30;54.20;;;;;;4974636;28;20031;-79
2022/06/23 05:21:25;;;;;;;5.55;4.35;;;19.20;53.50;;;;;;4941193;28;20033;-79
2022/06/23 05:23:59;;;;;;;5.57;4.53;;;19.30;53.60;;;;;;4962029;28;20061;-79
2022/06/23 05:27:02;;;;;;;5.00;4.50;;;19.30;53.70;;;;;;4960309;28;20325;-78
2022/06/23 05:29:59;;;;;;;5.50;4.53;;;19.30;53.90;;;;;;4974685;28;20309;-79
2022/06/23 05:32:34;;;;;;;5.45;3.92;;;19.30;53.70;;;;;;4963676;28;20053;-82
2022/06/23 05:35:28;;;;;;;4.18;3.78;;;19.30;53.60;;;;;;4946833;28;20294;-80
2022/06/23 05:38:00;;;;;;;5.20;4.70;;;19.40;53.90;;;;;;4961492;28;20038;-80
2022/06/23 05:40:33;;;;;;;5.05;4.30;;;19.40;53.80;;;;;;4965916;28;20019;-79
2022/06/23 05:43:01;;;;;;;5.18;4.25;;;19.40;54.00;;;;;;4962947;28;20043;-79
2022/06/23 05:45:28;;;;;;;6.75;4.47;;;19.50;54.00;;;;;;4963490;28;20465;-87
2022/06/23 05:47:57;;;;;;;4.55;4.15;;;19.50;54.10;;;;;;4946964;28;20054;-85
2022/06/23 05:50:42;;;;;;;5.70;5.15;;;19.50;54.10;;;;;;4960874;28;20081;-78
2022/06/23 05:53:16;;;;;;;5.30;4.30;;;19.50;54.20;;;;;;4962000;28;20042;-81
2022/06/23 05:55:44;;;;;;;4.25;3.90;;;19.60;54.30;;;;;;4942951;28;20543;-81
2022/06/23 05:58:13;;;;;;;4.78;4.25;;;19.60;54.20;;;;;;4944823;28;20033;-80
2022/06/23 06:01:21;;;;;;;7.05;5.55;;;19.70;54.50;;;;;;4962822;28;20035;-78
2022/06/23 06:03:56;;;;;;;6.25;5.65;;;19.70;54.80;;;;;;4928098;28;20069;-78
2022/06/23 06:06:22;;;;;;;6.03;5.40;;;19.80;55.10;;;;;;4961414;28;20030;-78
2022/06/23 06:11:46;;;;;;;8.02;5.97;;;19.90;55.80;;;;;;4961306;28;20030;-79
2022/06/23 06:14:15;;;;;;;6.55;5.30;;;20.00;55.90;;;;;;4960954;28;20077;-78
2022/06/23 06:16:41;;;;;;;6.68;5.20;;;20.00;56.10;;;;;;4947164;28;20050;-78
2022/06/23 06:19:14;;;;;;;6.50;4.78;;;20.10;56.40;;;;;;4944982;28;20042;-86
2022/06/23 06:21:40;;;;;;;5.55;4.65;;;20.20;56.70;;;;;;4956866;28;20030;-79
2022/06/23 06:24:23;;;;;;;6.05;4.43;;;20.30;56.60;;;;;;4960991;28;20492;-85
2022/06/23 06:26:53;;;;;;;8.10;5.65;;;20.40;56.80;;;;;;4959677;28;20026;-85
2022/06/23 06:29:30;;;;;;;7.65;4.78;;;20.50;56.70;;;;;;4962962;28;20462;-77
2022/06/23 06:32:07;;;;;;;6.57;5.47;;;20.70;57.00;;;;;;4951866;28;20520;-77
2022/06/23 06:34:42;;;;;;;5.68;4.60;;;20.90;57.10;;;;;;4958582;28;20065;-78
2022/06/23 06:37:11;;;;;;;10.75;5.05;;;21.20;57.10;;;;;;4964872;28;20397;-79
2022/06/23 06:39:41;;;;;;;11.00;5.32;;;21.60;56.80;;;;;;4962078;28;20519;-79
2022/06/23 06:42:09;;;;;;;8.02;5.45;;;22.10;56.70;;;;;;4961677;28;20073;-78
2022/06/23 06:44:40;;;;;;;7.45;4.97;;;22.60;56.30;;;;;;4957778;28;20114;-77
2022/06/23 06:47:14;;;;;;;6.15;5.18;;;23.10;56.10;;;;;;4959082;28;20035;-75
2022/06/23 06:49:40;;;;;;;4.53;4.13;;;23.50;55.70;;;;;;4960199;28;20065;-77
2022/06/23 06:52:08;;;;;;;4.43;4.03;;;24.00;55.60;;;;;;4958191;28;20027;-77
2022/06/23 06:54:49;;;;;;;6.68;5.57;;;24.40;55.50;;;;;;4955545;28;20131;-76
2022/06/23 06:57:36;;;;;;;8.65;5.15;;;24.80;55.50;;;;;;4958015;28;20030;-79
2022/06/23 07:00:34;;;;;;;8.85;5.07;;;25.20;55.00;;;;;;4957788;28;20023;-79
2022/06/23 07:03:04;;;;;;;8.38;4.97;;;25.60;54.40;;;;;;4959219;28;20612;-79
2022/06/23 07:05:41;;;;;;;6.00;4.20;;;26.00;53.90;;;;;;4954491;28;20085;-79
2022/06/23 07:08:21;;;;;;;6.90;5.03;;;26.30;53.30;;;;;;4958736;28;20278;-78
2022/06/23 07:11:03;;;;;;;6.47;3.95;;;26.60;52.80;;;;;;4960541;28;20062;-78
2022/06/23 07:13:54;;;;;;;5.72;4.90;;;27.00;52.30;;;;;;4961642;28;20027;-77
2022/06/23 07:16:24;;;;;;;5.95;4.20;;;27.30;51.90;;;;;;4949353;28;20493;-78
2022/06/23 07:18:58;;;;;;;5.50;4.00;;;27.60;51.30;;;;;;4962848;28;20434;-79
2022/06/23 07:21:45;;;;;;;7.95;5.10;;;27.80;51.00;;;;;;4959177;28;20351;-79
2022/06/23 07:24:36;;;;;;;6.15;4.60;;;27.80;50.90;;;;;;4959124;28;20075;-79
2022/06/23 07:27:09;;;;;;;6.05;4.75;;;27.80;51.10;;;;;;4963171;28;20035;-80
2022/06/23 07:29:44;;;;;;;11.23;4.65;;;27.80;51.00;;;;;;4963305;28;20175;-79
2022/06/23 07:32:19;;;;;;;9.45;4.25;;;27.70;50.60;;;;;;4968251;28;20035;-79
2022/06/23 07:34:51;;;;;;;7.25;4.28;;;27.60;50.50;;;;;;4962144;28;20050;-78
2022/06/23 07:37:33;;;;;;;5.57;3.92;;;27.40;50.40;;;;;;4964957;28;20452;-78
2022/06/23 07:40:04;;;;;;;6.72;4.20;;;27.20;50.30;;;;;;4963234;28;20039;-77
2022/06/23 07:42:46;;;;;;;8.98;4.95;;;27.00;50.70;;;;;;4964284;28;20034;-77
2022/06/23 07:45:21;;;;;;;9.52;4.78;;;26.80;50.80;;;;;;4971136;28;20554;-77
2022/06/23 07:47:47;;;;;;;5.55;4.28;;;26.40;51.00;;;;;;4972517;28;20520;-77
2022/06/23 07:50:14;;;;;;;5.95;4.00;;;26.20;51.20;;;;;;4967602;28;20031;-77
2022/06/23 07:52:41;;;;;;;4.78;4.32;;;26.00;51.40;;;;;;4984145;28;20110;-77
2022/06/23 07:55:16;;;;;;;6.50;4.78;;;25.80;51.50;;;;;;4984368;28;20307;-76
2022/06/23 07:57:42;;;;;;;6.80;4.30;;;25.70;51.70;;;;;;4983566;28;20023;-77
2022/06/23 08:00:09;;;;;;;17.10;6.05;;;25.60;51.80;;;;;;4986895;28;20087;-76
2022/06/23 08:02:51;;;;;;;7.32;4.18;;;25.70;51.90;;;;;;4970855;28;20042;-78
2022/06/23 08:05:26;;;;;;;5.25;3.80;;;25.90;51.70;;;;;;4961621;28;20291;-76
2022/06/23 08:07:54;;;;;;;5.07;3.65;;;26.30;51.30;;;;;;4977251;28;20065;-77
2022/06/23 08:10:24;;;;;;;8.18;4.13;;;26.90;50.70;;;;;;4962212;28;20035;-77
2022/06/23 08:13:09;;;;;;;5.63;3.47;;;27.30;49.90;;;;;;4963932;28;20039;-79
2022/06/23 08:18:43;;;;;;;12.43;3.72;;;27.90;48.80;;;;;;4961913;28;20085;-79
2022/06/23 08:21:26;;;;;;;6.05;3.47;;;28.10;48.30;;;;;;4962468;28;20154;-79
2022/06/23 08:23:58;;;;;;;6.10;3.42;;;28.20;47.80;;;;;;4961141;28;20105;-80
2022/06/23 08:26:26;;;;;;;7.68;3.90;;;28.20;47.70;;;;;;4963015;28;20493;-79
2022/06/23 08:28:57;;;;;;;5.28;3.30;;;28.30;47.60;;;;;;4965415;28;20034;-79
2022/06/23 08:31:25;;;;;;;7.05;3.30;;;28.40;47.30;;;;;;4972786;28;20027;-78
2022/06/23 08:33:51;;;;;;;5.63;3.47;;;28.40;47.10;;;;;;4961338;28;20533;-78
2022/06/23 08:36:22;;;;;;;8.07;3.25;;;28.50;46.90;;;;;;4965585;28;20038;-76
2022/06/23 08:38:56;;;;;;;7.38;3.67;;;28.50;46.50;;;;;;4960265;28;20425;-76
2022/06/23 08:41:43;;;;;;;5.38;3.05;;;28.60;46.30;;;;;;4944634;28;20778;-78
2022/06/23 08:44:37;;;;;;;7.07;2.40;;;28.60;46.10;;;;;;4962215;28;20042;-79
2022/06/23 08:47:17;;;;;;;5.20;2.70;;;28.70;46.20;;;;;;4961266;28;20498;-79
2022/06/23 08:50:00;;;;;;;8.35;3.05;;;28.80;46.20;;;;;;4960327;28;20027;-78
2022/06/23 08:52:54;;;;;;;3.28;2.95;;;28.90;46.10;;;;;;4962358;28;20033;-78
2022/06/23 08:55:27;;;;;;;4.70;2.83;;;29.00;45.50;;;;;;4960196;28;20107;-78
2022/06/23 08:58:07;;;;;;;4.78;2.58;;;29.00;45.30;;;;;;4962176;28;20445;-82
2022/06/23 09:01:05;;;;;;;3.05;2.60;;;29.20;45.00;;;;;;4962808;28;20058;-77
2022/06/23 09:04:07;;;;;;;3.13;2.15;;;29.30;44.60;;;;;;4917790;28;20050;-80
2022/06/23 09:06:54;;;;;;;3.53;2.00;;;29.30;44.30;;;;;;4961378;28;20034;-78
2022/06/23 09:09:23;;;;;;;3.25;2.50;;;29.20;44.40;;;;;;4953519;28;20136;-78
2022/06/23 09:12:02;;;;;;;3.60;2.00;;;29.20;44.50;;;;;;4956260;28;20027;-78
2022/06/23 09:14:28;;;;;;;2.70;2.20;;;29.10;44.20;;;;;;4941544;28;20041;-77
2022/06/23 09:17:48;;;;;;;4.40;2.67;;;29.20;44.30;;;;;;4962906;28;20730;-78
2022/06/23 09:20:49;;;;;;;2.28;2.05;;;29.10;43.90;;;;;;4903469;29;20076;-77
2022/06/23 09:23:52;;;;;;;3.28;2.10;;;29.10;44.10;;;;;;4957303;28;20031;-78
2022/06/23 09:26:32;;;;;;;7.25;3.15;;;29.10;44.00;;;;;;4964756;28;20426;-79
2022/06/23 09:29:10;;;;;;;2.60;2.00;;;29.10;44.20;;;;;;4958736;28;20027;-78
2022/06/23 09:31:54;;;;;;;2.70;1.50;;;29.20;44.00;;;;;;4961119;28;20038;-79
2022/06/23 09:34:47;;;;;;;2.60;1.20;;;29.20;43.60;;;;;;4960927;28;20606;-79
2022/06/23 09:37:39;;;;;;;3.50;1.73;;;29.30;43.40;;;;;;4960542;28;20050;-80
2022/06/23 09:40:16;;;;;;;1.30;1.20;;;29.40;43.30;;;;;;4956109;28;20073;-80
2022/06/23 09:42:57;;;;;;;1.88;1.33;;;29.50;43.20;;;;;;4961543;28;20556;-78
2022/06/23 09:45:46;;;;;;;4.32;1.50;;;29.50;43.00;;;;;;4960155;28;20038;-78
2022/06/23 09:48:22;;;;;;;1.90;1.40;;;29.40;43.10;;;;;;4962021;28;20123;-77
2022/06/23 09:50:48;;;;;;;4.22;1.50;;;29.50;43.40;;;;;;4944114;28;20038;-77
2022/06/23 09:53:27;;;;;;;2.35;1.63;;;29.40;43.30;;;;;;4954769;28;20027;-77
2022/06/23 09:56:21;;;;;;;4.13;1.80;;;29.40;43.30;;;;;;4957693;28;20034;-79
2022/06/23 09:59:26;;;;;;;2.00;1.70;;;29.30;42.90;;;;;;4962399;28;20355;-78
2022/06/23 10:01:58;;;;;;;2.00;1.83;;;29.20;43.00;;;;;;4957060;28;20035;-83
2022/06/23 10:04:51;;;;;;;6.43;2.22;;;29.20;43.30;;;;;;4962549;28;20031;-87
2022/06/23 10:07:29;;;;;;;5.35;2.17;;;29.10;43.50;;;;;;4959432;28;20143;-86
2022/06/23 10:10:15;;;;;;;5.82;2.25;;;29.00;43.70;;;;;;4960523;28;20539;-84
2022/06/23 10:12:47;;;;;;;5.60;1.40;;;29.00;43.80;;;;;;4960548;28;20027;-84
2022/06/23 10:15:27;;;;;;;1.05;0.80;;;29.00;43.80;;;;;;4963156;28;20057;-81
2022/06/23 10:18:05;;;;;;;1.45;0.77;;;29.00;43.60;;;;;;4961628;28;20050;-80
2022/06/23 10:20:49;;;;;;;1.45;0.82;;;28.90;43.60;;;;;;4958342;28;20026;-84
2022/06/23 10:23:33;;;;;;;1.88;0.80;;;28.90;43.80;;;;;;4960989;28;20130;-80
2022/06/23 10:25:59;;;;;;;1.83;1.00;;;28.80;44.10;;;;;;4942193;28;20050;-82
2022/06/23 10:28:38;;;;;;;1.60;0.88;;;28.70;44.30;;;;;;4943336;28;20042;-81
2022/06/23 10:31:22;;;;;;;1.58;0.98;;;28.60;44.50;;;;;;4963859;28;20031;-81
2022/06/23 10:34:35;;;;;;;5.97;1.33;;;28.50;44.70;;;;;;4964067;28;20038;-80
2022/06/23 10:37:28;;;;;;;1.70;1.13;;;28.40;44.80;;;;;;4962095;28;20118;-81
2022/06/23 10:40:04;;;;;;;;;;;28.30;45.00;;;;;;4959419;28;20357;-80
2022/06/23 10:42:58;;;;;;;4.15;1.13;;;28.20;45.00;;;;;;4958901;28;19992;-80
2022/06/23 10:45:43;;;;;;;3.10;1.00;;;28.20;45.10;;;;;;4959536;28;20053;-84
2022/06/23 10:48:18;;;;;;;2.53;1.08;;;28.20;45.20;;;;;;4956232;28;20039;-81
2022/06/23 10:51:03;;;;;;;2.60;0.93;;;28.10;45.10;;;;;;4957288;28;20027;-81
2022/06/23 10:53:53;;;;;;;3.38;1.45;;;28.10;45.10;;;;;;4953973;28;20039;-81
2022/06/23 10:56:43;;;;;;;5.70;1.08;;;28.10;45.10;;;;;;4961469;28;20517;-79
2022/06/23 10:59:59;;;;;;;1.52;0.90;;;28.00;45.20;;;;;;4958233;28;20041;-81
2022/06/23 11:02:28;;;;;;;1.63;0.63;;;28.00;45.30;;;;;;4938774;28;20619;-82
2022/06/23 11:05:23;;;;;;;0.90;0.77;;;28.00;45.30;;;;;;4963961;28;20108;-80
2022/06/23 11:08:11;;;;;;;3.97;1.05;;;28.10;45.10;;;;;;4953396;28;20031;-81
2022/06/23 11:10:50;;;;;;;2.05;1.10;;;28.40;45.00;;;;;;4963311;28;20049;-81
2022/06/23 11:13:16;;;;;;;3.15;1.38;;;28.80;44.50;;;;;;4968289;28;20034;-81
2022/06/23 11:15:52;;;;;;;1.10;1.00;;;29.20;44.00;;;;;;4967535;28;20035;-81
2022/06/23 11:18:19;;;;;;;1.88;1.13;;;29.40;43.50;;;;;;4966307;28;20477;-81
2022/06/23 11:21:08;;;;;;;2.97;1.48;;;29.50;43.40;;;;;;4966643;28;20039;-81
2022/06/23 11:23:44;;;;;;;2.10;1.40;;;29.40;43.20;;;;;;4954819;28;20051;-79
2022/06/23 11:26:28;;;;;;;1.92;1.00;;;29.40;43.30;;;;;;4977678;28;20051;-79
2022/06/23 11:29:12;;;;;;;1.55;1.02;;;29.20;43.20;;;;;;4983411;28;20062;-79
2022/06/23 11:32:26;;;;;;;2.00;1.15;;;29.10;43.50;;;;;;4961840;28;20042;-80
2022/06/23 11:35:24;;;;;;;1.45;1.15;;;28.90;43.60;;;;;;4959388;28;20043;-81
2022/06/23 11:38:14;;;;;;;1.10;1.00;;;28.70;43.60;;;;;;4953549;28;20043;-80
2022/06/23 11:41:00;;;;;;;1.90;1.20;;;28.60;43.70;;;;;;4945011;28;20031;-79
2022/06/23 11:43:41;;;;;;;2.15;1.20;;;28.60;43.70;;;;;;4963343;28;20409;-79
2022/06/23 11:46:38;;;;;;;2.00;1.23;;;28.60;43.90;;;;;;4969106;28;20061;-80
2022/06/23 11:49:22;;;;;;;3.15;1.13;;;28.60;44.00;;;;;;4966439;28;20031;-79
2022/06/23 11:52:15;;;;;;;2.13;1.10;;;28.60;43.80;;;;;;4962716;28;20381;-83
2022/06/23 11:54:58;;;;;;;1.40;0.85;;;28.60;43.10;;;;;;4960292;28;20019;-83
2022/06/23 11:57:42;;;;;;;1.60;0.90;;;28.60;42.80;;;;;;4967250;28;20035;-81
2022/06/23 12:00:24;;;;;;;1.40;1.13;;;28.50;42.70;;;;;;4949957;28;20023;-78
2022/06/23 12:03:17;;;;;;;2.50;0.98;;;28.50;42.40;;;;;;4966104;28;20070;-79
2022/06/23 12:05:47;;;;;;;;;;;28.40;42.40;;;;;;4962529;28;20034;-81
2022/06/23 12:08:36;;;;;;;0.93;0.85;;;28.40;42.60;;;;;;4949688;28;20027;-80
2022/06/23 12:11:04;;;;;;;1.10;1.00;;;28.30;42.50;;;;;;4945869;28;20377;-82
2022/06/23 12:13:32;;;;;;;3.05;1.25;;;28.30;42.80;;;;;;4943966;28;20027;-82
2022/06/23 12:16:00;;;;;;;3.03;0.90;;;28.20;42.70;;;;;;4978267;28;20253;-80
2022/06/23 12:18:36;;;;;;;2.63;1.08;;;28.10;42.60;;;;;;4967843;28;20401;-80
2022/06/23 12:21:33;;;;;;;2.13;1.33;;;28.10;43.10;;;;;;4970520;28;20067;-80
2022/06/23 12:24:11;;;;;;;3.83;1.70;;;28.00;42.30;;;;;;4964706;28;20197;-80
2022/06/23 12:26:44;;;;;;;2.67;1.23;;;27.90;42.60;;;;;;4961256;28;20147;-80
2022/06/23 12:29:13;;;;;;;1.83;0.95;;;27.90;42.60;;;;;;4967418;28;20385;-80
2022/06/23 12:32:00;;;;;;;1.38;1.27;;;27.90;42.70;;;;;;4964537;28;20142;-80
2022/06/23 12:34:31;;;;;;;4.88;1.40;;;27.90;42.90;;;;;;4949061;28;20476;-80
2022/06/23 12:37:03;;;;;;;1.98;1.20;;;27.90;42.80;;;;;;4949774;28;20031;-80
2022/06/23 12:39:45;;;;;;;1.87;1.23;;;28.00;42.60;;;;;;4947556;28;20468;-77
2022/06/23 12:42:33;;;;;;;2.22;1.70;;;28.10;42.50;;;;;;4961962;28;20031;-78
2022/06/23 12:45:37;;;;;;;2.33;1.40;;;28.30;42.40;;;;;;4966258;28;20053;-79
2022/06/23 12:48:21;;;;;;;4.07;1.85;;;28.40;42.20;;;;;;4964272;28;20122;-78
2022/06/23 12:51:17;;;;;;;3.15;1.45;;;28.50;42.10;;;;;;4964955;28;20481;-78
2022/06/23 12:53:45;;;;;;;3.97;2.05;;;28.60;42.10;;;;;;4959636;28;20038;-78
2022/06/23 12:56:46;;;;;;;2.25;1.73;;;28.60;42.20;;;;;;4962897;28;20525;-78
2022/06/23 12:59:25;;;;;;;3.72;1.77;;;28.50;42.10;;;;;;4963118;28;20041;-77
2022/06/23 13:02:00;;;;;;;1.83;1.27;;;28.50;42.30;;;;;;4966079;28;20041;-79
2022/06/23 13:04:46;;;;;;;1.52;1.30;;;28.30;42.30;;;;;;4965893;28;20049;-79
2022/06/23 13:07:33;;;;;;;4.30;2.05;;;28.20;42.60;;;;;;4931986;28;20087;-80
2022/06/23 13:10:21;;;;;;;4.65;1.88;;;28.10;42.90;;;;;;4945101;28;20046;-79
2022/06/23 13:12:59;;;;;;;2.50;1.60;;;27.80;43.30;;;;;;4968465;28;20376;-80
2022/06/23 13:16:06;;;;;;;3.00;1.73;;;27.70;43.60;;;;;;4962769;28;20035;-80
2022/06/23 13:18:39;;;;;;;2.78;1.50;;;27.50;43.80;;;;;;4943461;28;20511;-80
2022/06/23 13:21:26;;;;;;;4.00;1.60;;;27.40;44.00;;;;;;4948817;28;20046;-79
2022/06/23 13:24:20;;;;;;;1.27;1.13;;;27.30;44.30;;;;;;4965004;28;20078;-80
2022/06/23 13:26:57;;;;;;;2.60;1.95;;;27.30;44.70;;;;;;4946496;28;20050;-80
2022/06/23 13:29:41;;;;;;;3.20;1.65;;;27.20;45.20;;;;;;4943274;28;20386;-79
2022/06/23 13:32:14;;;;;;;3.72;1.67;;;27.10;45.80;;;;;;4948378;28;20039;-77
2022/06/23 13:34:58;;;;;;;2.38;1.63;;;27.00;46.00;;;;;;4948628;28;20510;-78
2022/06/23 13:37:55;;;;;;;2.28;1.63;;;26.80;46.50;;;;;;4961944;28;20043;-78
2022/06/23 13:40:26;;;;;;;3.05;2.08;;;26.80;47.30;;;;;;4955930;28;20502;-78
2022/06/23 13:43:00;;;;;;;2.53;1.58;;;26.70;46.70;;;;;;4960573;28;20539;-78
2022/06/23 13:45:41;;;;;;;2.00;1.80;;;26.70;46.80;;;;;;4959846;28;20415;-77
2022/06/23 13:48:26;;;;;;;4.70;1.65;;;26.70;46.80;;;;;;4968698;28;20412;-78
2022/06/23 13:50:57;;;;;;;1.73;1.20;;;26.80;46.70;;;;;;4965314;28;20062;-78
2022/06/23 13:53:33;;;;;;;5.55;1.88;;;26.80;46.70;;;;;;4963773;28;20034;-78
2022/06/23 13:56:18;;;;;;;5.25;2.30;;;26.90;46.70;;;;;;4958482;28;20054;-77
2022/06/23 13:58:57;;;;;;;4.47;2.38;;;27.10;46.70;;;;;;4962680;28;20517;-77
2022/06/23 14:01:40;;;;;;;3.10;2.30;;;27.30;46.50;;;;;;4962933;28;20355;-77
2022/06/23 14:04:21;;;;;;;3.90;2.97;;;27.70;46.30;;;;;;4967047;28;20097;-77
2022/06/23 14:07:26;;;;;;;5.20;2.80;;;28.10;45.70;;;;;;4962238;28;20027;-77